6OI9 weather

Red Roof Inns Heliport
Columbus, Ohio, United States

Public forecast

Using degrees Fahrenheit for public forecast. Weather courtesy of forecast.io.

Closest aviation weather report (METAR) to Red Roof Inns Heliport

Closest report is The Ohio State University Airport - Don Scott Field, 3.1 nm (5.7 km) NE. Retrieved 2020/05/26 05:53 UTC (15 minutes ago):

KOSU 260553Z AUTO 32003KT 10SM CLR 19/18 A3006 RMK AO2 SLP172 T01940183 10244 20194 58002

Closest aviation forecast (TAF) to Red Roof Inns Heliport

Closest forecast is John Glenn Columbus International Airport, 11.3 nm (20.8 km) ESE. Retrieved 2020/05/26 06:51 UTC (0 seconds ago):

TAF KCMH 260548Z 2606/2706 14003KT P6SM SCT250 FM261700 14007KT P6SM BKN040